METAR Data
IDs: Format: Raw Decoded Include TAF

Data at: 0110 UTC 06 Dec 2019

KCRE 060053Z 00000KT 10SM CLR 06/04 A3019 RMK AO1 SLP223 T00560044
KCRE 052353Z 00000KT 10SM CLR 07/05 A3017 RMK AO1 SLP218 T00670050 10167 20067 53028
KCRE 052253Z 00000KT 10SM CLR 08/06 A3014 RMK AO1 SLP208 T00830056
KCRE 052153Z 00000KT 10SM CLR 13/05 A3011 RMK AO1 SLP198 T01280050
KCRE 052053Z 17004KT 10SM CLR 14/04 A3009 RMK AO1 SLP190 T01390039 53006
KCRE 051953Z 20007KT 10SM CLR 15/03 A3007 RMK AO1 SLP184 T01500028
KCRE 051853Z VRB04KT 10SM CLR 16/M03 A3007 RMK AO1 SLP182 T01611028
KCRE 051753Z 10SM CLR 16/M03 A3007 RMK AO1 SLP184 T01561028 10156 20056 58004
KCRE 051653Z 35007KT 10SM CLR 14/M02 A3008 RMK AO1 SLP188 T01441022
KCRE 051553Z 36012G17KT 10SM CLR 13/M02 A3010 RMK AO1 SLP192 T01331022
KCRE 051453Z 02008KT 10SM CLR 12/00 A3008 RMK AO1 SLP188 T01220000 51033
KCRE 051353Z 01009KT 10SM CLR 09/01 A3006 RMK AO1 SLP179 T00940006
KCRE 051253Z 32004KT 10SM CLR 07/01 A3002 RMK AO1 SLP168 T00670006
KCRE 051153Z VRB04KT 10SM CLR 06/01 A2999 RMK AO1 SLP155 T00610006 10083 20056 53033
KCRE 051053Z AUTO 00000KT 10SM CLR 06/01 A2995 RMK AO1 SLP141 T00610011
KCRE 050953Z AUTO 28004KT 10SM CLR 06/01 A2991 RMK AO1 SLP129 T00610006
KCRE 050853Z AUTO 00000KT 10SM CLR 07/01 A2989 RMK AO1 SLP122 T00720011 53013
KCRE 050753Z AUTO 27006KT 10SM CLR 08/01 A2986 RMK AO1 SLP112 T00780011
KCRE 050653Z AUTO 27003KT 10SM CLR 07/02 A2985 RMK AO1 SLP110 T00720017
KCRE 050553Z AUTO 27006KT 10SM CLR 08/02 A2985 RMK AO1 SLP109 T00830017 10106 20083 53009
KCRE 050453Z AUTO 27006KT 10SM CLR 09/02 A2984 RMK AO1 SLP105 T00940017 401560033
KCRE 050353Z AUTO 25008KT 10SM CLR 11/02 A2983 RMK AO1 SLP101 T01060017
KCRE 050253Z AUTO 24008KT 10SM CLR 10/02 A2982 RMK AO1 SLP100 T01000017 53011
KCRE 050153Z AUTO 24006KT 10SM CLR 09/02 A2981 RMK AO1 SLP095 T00940017
KCRE 050053Z 24007KT 10SM CLR 10/02 A2980 RMK AO1 SLP091 T01000017
KCRE 042353Z 25005KT 10SM CLR 09/02 A2979 RMK AO1 SLP089 T00940017 10156 20078 53017
KCRE 042253Z 25004KT 10SM CLR 11/01 A2977 RMK AO1 SLP082 T01110011
KCRE 042153Z 25005KT 10SM CLR 13/01 A2975 RMK AO1 SLP075 T01330006
KCRE 042053Z 26007G14KT 10SM CLR 15/M01 A2974 RMK AO1 SLP071 T01501006 53000
KCRE 041953Z 25008KT 10SM CLR 15/00 A2973 RMK AO1 SLP067 T01500000
KCRE 041853Z 26009KT 10SM CLR 15/M01 A2972 RMK AO1 SLP065 T01501011
KCRE 041753Z VRB05KT 10SM CLR 14/00 A2974 RMK AO1 SLP071 T01390000 10139 20033 58026
KCRE 041653Z 31006KT 10SM CLR 13/00 A2978 RMK AO1 SLP084 T01280000
KCRE 041553Z 33005KT 10SM CLR 11/01 A2981 RMK AO1 SLP095 T01110011
KCRE 041453Z 31008KT 10SM CLR 09/03 A2981 RMK AO1 SLP097 T00890028 51014
KCRE 041353Z 28006KT 10SM CLR 06/02 A2980 RMK AO1 SLP091 T00610022